sensor_id;sensor_type;location;lat;lon;timestamp;P1;durP1;ratioP1;P2;durP2;ratioP2
28623;SDS011;15813;46.932;19.658;2023-08-21T00:01:36;914.10;;;647.72;;
28623;SDS011;15813;46.932;19.658;2023-08-21T00:04:01;905.92;;;603.85;;
28623;SDS011;15813;46.932;19.658;2023-08-21T00:06:26;907.03;;;591.55;;
28623;SDS011;15813;46.932;19.658;2023-08-21T00:08:51;914.10;;;636.67;;
28623;SDS011;15813;46.932;19.658;2023-08-21T00:11:17;915.47;;;657.87;;
28623;SDS011;15813;46.932;19.658;2023-08-21T00:13:42;913.60;;;652.80;;
28623;SDS011;15813;46.932;19.658;2023-08-21T00:16:10;915.65;;;652.90;;
28623;SDS011;15813;46.932;19.658;2023-08-21T00:18:35;913.03;;;639.67;;
28623;SDS011;15813;46.932;19.658;2023-08-21T00:21:01;911.83;;;645.70;;
28623;SDS011;15813;46.932;19.658;2023-08-21T00:23:26;909.20;;;639.40;;
28623;SDS011;15813;46.932;19.658;2023-08-21T00:25:52;908.70;;;639.83;;
28623;SDS011;15813;46.932;19.658;2023-08-21T00:28:17;911.20;;;642.88;;
28623;SDS011;15813;46.932;19.658;2023-08-21T00:30:42;910.70;;;651.30;;
28623;SDS011;15813;46.932;19.658;2023-08-21T00:33:08;904.90;;;643.20;;
28623;SDS011;15813;46.932;19.658;2023-08-21T00:35:33;906.40;;;649.10;;
28623;SDS011;15813;46.932;19.658;2023-08-21T00:37:58;905.07;;;638.87;;
28623;SDS011;15813;46.932;19.658;2023-08-21T00:40:23;913.50;;;642.53;;
28623;SDS011;15813;46.932;19.658;2023-08-21T00:42:49;908.70;;;638.20;;
28623;SDS011;15813;46.932;19.658;2023-08-21T00:45:14;908.40;;;641.28;;
28623;SDS011;15813;46.932;19.658;2023-08-21T00:47:39;911.95;;;645.30;;
28623;SDS011;15813;46.932;19.658;2023-08-21T00:50:05;906.03;;;640.22;;
28623;SDS011;15813;46.932;19.658;2023-08-21T00:52:32;902.70;;;636.50;;
28623;SDS011;15813;46.932;19.658;2023-08-21T00:54:57;911.05;;;631.20;;
28623;SDS011;15813;46.932;19.658;2023-08-21T00:57:23;912.55;;;644.70;;
28623;SDS011;15813;46.932;19.658;2023-08-21T00:59:48;910.65;;;640.47;;
28623;SDS011;15813;46.932;19.658;2023-08-21T01:02:13;907.88;;;644.97;;
28623;SDS011;15813;46.932;19.658;2023-08-21T01:04:39;904.13;;;609.03;;
28623;SDS011;15813;46.932;19.658;2023-08-21T01:07:04;907.65;;;624.75;;
28623;SDS011;15813;46.932;19.658;2023-08-21T01:09:50;909.03;;;623.58;;
28623;SDS011;15813;46.932;19.658;2023-08-21T01:12:22;903.80;;;622.80;;
28623;SDS011;15813;46.932;19.658;2023-08-21T01:17:20;909.10;;;632.28;;
28623;SDS011;15813;46.932;19.658;2023-08-21T01:19:48;910.33;;;646.00;;
28623;SDS011;15813;46.932;19.658;2023-08-21T01:22:13;905.50;;;632.90;;
28623;SDS011;15813;46.932;19.658;2023-08-21T01:24:39;909.28;;;645.13;;
28623;SDS011;15813;46.932;19.658;2023-08-21T01:27:04;907.20;;;634.73;;
28623;SDS011;15813;46.932;19.658;2023-08-21T01:29:30;903.95;;;633.35;;
28623;SDS011;15813;46.932;19.658;2023-08-21T01:34:20;901.70;;;635.13;;
28623;SDS011;15813;46.932;19.658;2023-08-21T01:36:46;897.22;;;619.33;;
28623;SDS011;15813;46.932;19.658;2023-08-21T01:39:11;897.95;;;603.30;;
28623;SDS011;15813;46.932;19.658;2023-08-21T01:41:37;904.50;;;627.47;;
28623;SDS011;15813;46.932;19.658;2023-08-21T01:44:02;901.67;;;618.83;;
28623;SDS011;15813;46.932;19.658;2023-08-21T01:46:27;903.70;;;631.20;;
28623;SDS011;15813;46.932;19.658;2023-08-21T01:48:53;906.05;;;625.20;;
28623;SDS011;15813;46.932;19.658;2023-08-21T01:51:18;900.77;;;624.07;;
28623;SDS011;15813;46.932;19.658;2023-08-21T01:53:43;903.90;;;623.05;;
28623;SDS011;15813;46.932;19.658;2023-08-21T01:56:09;897.90;;;608.15;;
28623;SDS011;15813;46.932;19.658;2023-08-21T01:58:34;902.17;;;614.60;;
28623;SDS011;15813;46.932;19.658;2023-08-21T02:00:59;898.70;;;621.53;;
28623;SDS011;15813;46.932;19.658;2023-08-21T02:03:25;898.17;;;595.93;;
28623;SDS011;15813;46.932;19.658;2023-08-21T02:05:50;901.22;;;618.65;;
28623;SDS011;15813;46.932;19.658;2023-08-21T02:08:16;902.63;;;623.87;;
28623;SDS011;15813;46.932;19.658;2023-08-21T02:10:51;901.80;;;630.53;;
28623;SDS011;15813;46.932;19.658;2023-08-21T02:13:16;899.67;;;624.40;;
28623;SDS011;15813;46.932;19.658;2023-08-21T02:15:41;901.15;;;623.22;;
28623;SDS011;15813;46.932;19.658;2023-08-21T02:18:07;899.73;;;624.17;;
28623;SDS011;15813;46.932;19.658;2023-08-21T02:20:32;897.60;;;598.03;;
28623;SDS011;15813;46.932;19.658;2023-08-21T02:22:57;901.60;;;617.70;;
28623;SDS011;15813;46.932;19.658;2023-08-21T02:25:22;905.85;;;624.78;;
28623;SDS011;15813;46.932;19.658;2023-08-21T02:27:48;896.40;;;612.97;;
28623;SDS011;15813;46.932;19.658;2023-08-21T02:30:13;900.25;;;629.50;;
28623;SDS011;15813;46.932;19.658;2023-08-21T02:32:38;902.13;;;620.65;;
28623;SDS011;15813;46.932;19.658;2023-08-21T02:35:05;898.08;;;618.05;;
28623;SDS011;15813;46.932;19.658;2023-08-21T02:37:31;900.15;;;622.67;;
28623;SDS011;15813;46.932;19.658;2023-08-21T02:39:56;897.80;;;615.47;;
28623;SDS011;15813;46.932;19.658;2023-08-21T02:42:21;900.80;;;623.43;;
28623;SDS011;15813;46.932;19.658;2023-08-21T02:44:46;900.25;;;621.88;;
28623;SDS011;15813;46.932;19.658;2023-08-21T02:47:12;895.92;;;615.65;;
28623;SDS011;15813;46.932;19.658;2023-08-21T02:49:37;898.05;;;617.78;;
28623;SDS011;15813;46.932;19.658;2023-08-21T02:52:02;898.97;;;621.45;;
28623;SDS011;15813;46.932;19.658;2023-08-21T02:54:28;893.47;;;610.85;;
28623;SDS011;15813;46.932;19.658;2023-08-21T02:56:53;896.28;;;594.22;;
28623;SDS011;15813;46.932;19.658;2023-08-21T02:59:18;898.92;;;595.40;;
28623;SDS011;15813;46.932;19.658;2023-08-21T03:01:43;892.33;;;576.03;;
28623;SDS011;15813;46.932;19.658;2023-08-21T03:04:09;898.10;;;601.33;;
28623;SDS011;15813;46.932;19.658;2023-08-21T03:06:34;892.90;;;599.35;;
28623;SDS011;15813;46.932;19.658;2023-08-21T03:08:59;896.37;;;588.60;;
28623;SDS011;15813;46.932;19.658;2023-08-21T03:11:24;893.13;;;562.65;;
28623;SDS011;15813;46.932;19.658;2023-08-21T03:13:50;897.20;;;608.40;;
28623;SDS011;15813;46.932;19.658;2023-08-21T03:16:15;894.67;;;607.50;;
28623;SDS011;15813;46.932;19.658;2023-08-21T03:21:32;892.55;;;590.03;;
28623;SDS011;15813;46.932;19.658;2023-08-21T03:23:58;896.03;;;608.42;;
28623;SDS011;15813;46.932;19.658;2023-08-21T03:26:24;888.00;;;602.03;;
28623;SDS011;15813;46.932;19.658;2023-08-21T03:28:49;892.33;;;615.17;;
28623;SDS011;15813;46.932;19.658;2023-08-21T03:31:15;896.28;;;610.03;;
28623;SDS011;15813;46.932;19.658;2023-08-21T03:33:40;892.97;;;602.47;;
28623;SDS011;15813;46.932;19.658;2023-08-21T03:36:06;894.00;;;609.67;;
28623;SDS011;15813;46.932;19.658;2023-08-21T03:38:31;887.20;;;583.03;;
28623;SDS011;15813;46.932;19.658;2023-08-21T03:40:56;889.60;;;587.45;;
28623;SDS011;15813;46.932;19.658;2023-08-21T03:43:22;893.03;;;590.10;;
28623;SDS011;15813;46.932;19.658;2023-08-21T03:45:47;890.63;;;592.92;;
28623;SDS011;15813;46.932;19.658;2023-08-21T03:48:12;894.80;;;596.30;;
28623;SDS011;15813;46.932;19.658;2023-08-21T03:50:38;887.97;;;592.80;;
28623;SDS011;15813;46.932;19.658;2023-08-21T03:53:03;894.33;;;596.03;;
28623;SDS011;15813;46.932;19.658;2023-08-21T03:55:29;892.75;;;596.15;;
28623;SDS011;15813;46.932;19.658;2023-08-21T03:57:54;893.65;;;607.85;;
28623;SDS011;15813;46.932;19.658;2023-08-21T04:00:19;890.08;;;592.28;;
28623;SDS011;15813;46.932;19.658;2023-08-21T04:02:44;888.55;;;600.78;;
28623;SDS011;15813;46.932;19.658;2023-08-21T04:05:10;893.00;;;596.78;;
28623;SDS011;15813;46.932;19.658;2023-08-21T04:07:36;891.53;;;597.85;;
28623;SDS011;15813;46.932;19.658;2023-08-21T04:10:01;891.80;;;606.50;;
28623;SDS011;15813;46.932;19.658;2023-08-21T04:12:27;895.47;;;584.65;;
28623;SDS011;15813;46.932;19.658;2023-08-21T04:14:52;888.28;;;579.25;;
28623;SDS011;15813;46.932;19.658;2023-08-21T04:17:23;890.17;;;573.92;;
28623;SDS011;15813;46.932;19.658;2023-08-21T04:19:49;887.53;;;569.83;;
28623;SDS011;15813;46.932;19.658;2023-08-21T04:22:14;886.95;;;562.38;;
28623;SDS011;15813;46.932;19.658;2023-08-21T04:24:40;895.20;;;574.30;;
28623;SDS011;15813;46.932;19.658;2023-08-21T04:27:05;899.67;;;595.72;;
28623;SDS011;15813;46.932;19.658;2023-08-21T04:29:31;885.83;;;570.25;;
28623;SDS011;15813;46.932;19.658;2023-08-21T04:31:56;894.37;;;609.23;;
28623;SDS011;15813;46.932;19.658;2023-08-21T04:34:21;895.08;;;613.03;;
28623;SDS011;15813;46.932;19.658;2023-08-21T04:36:46;899.85;;;626.00;;
28623;SDS011;15813;46.932;19.658;2023-08-21T04:39:12;898.23;;;603.80;;
28623;SDS011;15813;46.932;19.658;2023-08-21T04:41:39;891.70;;;608.05;;
28623;SDS011;15813;46.932;19.658;2023-08-21T04:44:04;898.50;;;612.08;;
28623;SDS011;15813;46.932;19.658;2023-08-21T04:46:29;896.85;;;616.78;;
28623;SDS011;15813;46.932;19.658;2023-08-21T04:48:54;901.45;;;603.42;;
28623;SDS011;15813;46.932;19.658;2023-08-21T04:51:20;897.97;;;574.15;;
28623;SDS011;15813;46.932;19.658;2023-08-21T04:53:45;901.73;;;630.63;;
28623;SDS011;15813;46.932;19.658;2023-08-21T04:56:10;893.03;;;601.20;;
28623;SDS011;15813;46.932;19.658;2023-08-21T04:58:36;900.65;;;624.50;;
28623;SDS011;15813;46.932;19.658;2023-08-21T05:01:01;904.88;;;631.53;;
28623;SDS011;15813;46.932;19.658;2023-08-21T05:03:26;911.43;;;654.47;;
28623;SDS011;15813;46.932;19.658;2023-08-21T05:05:55;912.85;;;667.05;;
28623;SDS011;15813;46.932;19.658;2023-08-21T05:08:21;909.53;;;632.05;;
28623;SDS011;15813;46.932;19.658;2023-08-21T05:10:46;916.60;;;690.67;;
28623;SDS011;15813;46.932;19.658;2023-08-21T05:13:11;914.83;;;645.40;;
28623;SDS011;15813;46.932;19.658;2023-08-21T05:15:36;917.70;;;701.15;;
28623;SDS011;15813;46.932;19.658;2023-08-21T05:18:02;912.30;;;702.87;;
28623;SDS011;15813;46.932;19.658;2023-08-21T05:20:27;915.75;;;691.33;;
28623;SDS011;15813;46.932;19.658;2023-08-21T05:22:52;920.15;;;719.38;;
28623;SDS011;15813;46.932;19.658;2023-08-21T05:25:18;920.17;;;715.30;;
28623;SDS011;15813;46.932;19.658;2023-08-21T05:27:43;924.25;;;753.35;;
28623;SDS011;15813;46.932;19.658;2023-08-21T05:30:08;923.37;;;726.60;;
28623;SDS011;15813;46.932;19.658;2023-08-21T05:32:35;918.63;;;739.92;;
28623;SDS011;15813;46.932;19.658;2023-08-21T05:35:00;927.73;;;776.17;;
28623;SDS011;15813;46.932;19.658;2023-08-21T05:37:26;930.40;;;782.10;;
28623;SDS011;15813;46.932;19.658;2023-08-21T05:39:52;918.20;;;809.50;;
28623;SDS011;15813;46.932;19.658;2023-08-21T05:42:17;919.70;;;815.97;;
28623;SDS011;15813;46.932;19.658;2023-08-21T05:44:42;933.53;;;799.70;;
28623;SDS011;15813;46.932;19.658;2023-08-21T05:47:07;938.43;;;783.73;;
28623;SDS011;15813;46.932;19.658;2023-08-21T05:49:33;952.57;;;800.13;;
28623;SDS011;15813;46.932;19.658;2023-08-21T05:51:58;1016.03;;;903.00;;
28623;SDS011;15813;46.932;19.658;2023-08-21T05:54:24;930.60;;;827.55;;
28623;SDS011;15813;46.932;19.658;2023-08-21T05:56:50;962.88;;;846.97;;
28623;SDS011;15813;46.932;19.658;2023-08-21T05:59:26;982.75;;;875.42;;
28623;SDS011;15813;46.932;19.658;2023-08-21T06:01:52;945.28;;;841.15;;
28623;SDS011;15813;46.932;19.658;2023-08-21T06:04:17;956.83;;;853.78;;
28623;SDS011;15813;46.932;19.658;2023-08-21T06:06:43;961.45;;;858.28;;
28623;SDS011;15813;46.932;19.658;2023-08-21T06:09:08;960.05;;;857.40;;
28623;SDS011;15813;46.932;19.658;2023-08-21T06:11:34;1030.75;;;922.72;;
28623;SDS011;15813;46.932;19.658;2023-08-21T06:13:59;1008.63;;;901.60;;
28623;SDS011;15813;46.932;19.658;2023-08-21T06:16:25;1026.90;;;875.97;;
28623;SDS011;15813;46.932;19.658;2023-08-21T06:18:50;1024.03;;;866.80;;
28623;SDS011;15813;46.932;19.658;2023-08-21T06:21:18;1004.95;;;871.25;;
28623;SDS011;15813;46.932;19.658;2023-08-21T06:23:44;1002.33;;;864.37;;
28623;SDS011;15813;46.932;19.658;2023-08-21T06:26:09;1006.57;;;885.70;;
28623;SDS011;15813;46.932;19.658;2023-08-21T06:28:34;1000.07;;;886.03;;
28623;SDS011;15813;46.932;19.658;2023-08-21T06:30:59;1011.03;;;899.90;;
28623;SDS011;15813;46.932;19.658;2023-08-21T06:35:53;1008.43;;;895.47;;
28623;SDS011;15813;46.932;19.658;2023-08-21T06:38:18;1030.60;;;917.30;;
28623;SDS011;15813;46.932;19.658;2023-08-21T06:40:44;1012.70;;;900.47;;
28623;SDS011;15813;46.932;19.658;2023-08-21T06:43:10;1023.35;;;910.85;;
28623;SDS011;15813;46.932;19.658;2023-08-21T06:45:35;1049.53;;;936.23;;
28623;SDS011;15813;46.932;19.658;2023-08-21T06:48:00;1039.63;;;925.83;;
28623;SDS011;15813;46.932;19.658;2023-08-21T06:50:26;1112.85;;;993.75;;
28623;SDS011;15813;46.932;19.658;2023-08-21T06:52:51;1154.50;;;999.90;;
28623;SDS011;15813;46.932;19.658;2023-08-21T06:55:16;1181.18;;;999.90;;
28623;SDS011;15813;46.932;19.658;2023-08-21T06:57:42;1062.83;;;949.03;;
28623;SDS011;15813;46.932;19.658;2023-08-21T07:00:07;1051.20;;;937.85;;
28623;SDS011;15813;46.932;19.658;2023-08-21T07:02:32;1150.80;;;999.90;;
28623;SDS011;15813;46.932;19.658;2023-08-21T07:04:58;1078.40;;;964.17;;
28623;SDS011;15813;46.932;19.658;2023-08-21T07:07:23;1081.57;;;966.85;;
28623;SDS011;15813;46.932;19.658;2023-08-21T07:09:49;1099.27;;;984.07;;
28623;SDS011;15813;46.932;19.658;2023-08-21T07:12:15;1085.28;;;970.50;;
28623;SDS011;15813;46.932;19.658;2023-08-21T07:14:40;1085.60;;;970.90;;
28623;SDS011;15813;46.932;19.658;2023-08-21T07:17:05;1081.43;;;967.23;;
28623;SDS011;15813;46.932;19.658;2023-08-21T07:19:30;1109.20;;;993.67;;
28623;SDS011;15813;46.932;19.658;2023-08-21T07:21:56;1095.03;;;980.17;;
28623;SDS011;15813;46.932;19.658;2023-08-21T07:24:21;1165.30;;;999.90;;
28623;SDS011;15813;46.932;19.658;2023-08-21T07:26:46;1129.27;;;999.90;;
28623;SDS011;15813;46.932;19.658;2023-08-21T07:29:11;1162.23;;;999.90;;
28623;SDS011;15813;46.932;19.658;2023-08-21T07:31:37;1177.23;;;999.90;;
28623;SDS011;15813;46.932;19.658;2023-08-21T07:34:02;1204.70;;;999.90;;
28623;SDS011;15813;46.932;19.658;2023-08-21T07:36:27;1152.70;;;999.90;;
28623;SDS011;15813;46.932;19.658;2023-08-21T07:38:53;1152.93;;;999.90;;
28623;SDS011;15813;46.932;19.658;2023-08-21T07:41:18;1127.63;;;999.90;;
28623;SDS011;15813;46.932;19.658;2023-08-21T07:43:43;1135.10;;;999.90;;
28623;SDS011;15813;46.932;19.658;2023-08-21T07:46:10;1176.75;;;999.90;;
28623;SDS011;15813;46.932;19.658;2023-08-21T07:48:38;1142.20;;;999.90;;
28623;SDS011;15813;46.932;19.658;2023-08-21T07:51:03;1159.47;;;999.90;;
28623;SDS011;15813;46.932;19.658;2023-08-21T07:53:29;1142.23;;;999.90;;
28623;SDS011;15813;46.932;19.658;2023-08-21T07:55:56;1149.28;;;999.90;;
28623;SDS011;15813;46.932;19.658;2023-08-21T07:58:21;1153.25;;;999.90;;
28623;SDS011;15813;46.932;19.658;2023-08-21T08:00:46;1158.30;;;999.90;;
28623;SDS011;15813;46.932;19.658;2023-08-21T08:03:13;1163.93;;;999.90;;
28623;SDS011;15813;46.932;19.658;2023-08-21T08:05:39;1188.97;;;999.90;;
28623;SDS011;15813;46.932;19.658;2023-08-21T08:08:05;1183.97;;;999.90;;
28623;SDS011;15813;46.932;19.658;2023-08-21T08:10:30;1186.00;;;999.90;;
28623;SDS011;15813;46.932;19.658;2023-08-21T08:12:55;1207.77;;;999.90;;
28623;SDS011;15813;46.932;19.658;2023-08-21T08:15:21;1189.43;;;999.90;;
28623;SDS011;15813;46.932;19.658;2023-08-21T08:17:46;1180.32;;;999.90;;
28623;SDS011;15813;46.932;19.658;2023-08-21T08:20:12;1180.63;;;999.90;;
28623;SDS011;15813;46.932;19.658;2023-08-21T08:22:37;1200.68;;;999.90;;
28623;SDS011;15813;46.932;19.658;2023-08-21T08:25:03;1191.25;;;999.90;;
28623;SDS011;15813;46.932;19.658;2023-08-21T08:27:31;1199.22;;;999.90;;
28623;SDS011;15813;46.932;19.658;2023-08-21T08:29:56;1229.10;;;999.90;;
28623;SDS011;15813;46.932;19.658;2023-08-21T08:32:21;1210.07;;;999.90;;
28623;SDS011;15813;46.932;19.658;2023-08-21T08:34:46;1227.87;;;999.90;;
28623;SDS011;15813;46.932;19.658;2023-08-21T08:37:12;1255.22;;;999.90;;
28623;SDS011;15813;46.932;19.658;2023-08-21T08:39:37;1245.23;;;999.90;;
28623;SDS011;15813;46.932;19.658;2023-08-21T08:42:03;1250.50;;;999.90;;
28623;SDS011;15813;46.932;19.658;2023-08-21T08:44:29;1231.82;;;999.90;;
28623;SDS011;15813;46.932;19.658;2023-08-21T08:46:55;1240.85;;;999.90;;
28623;SDS011;15813;46.932;19.658;2023-08-21T08:49:22;1227.15;;;999.90;;
28623;SDS011;15813;46.932;19.658;2023-08-21T08:51:48;1237.45;;;999.90;;
28623;SDS011;15813;46.932;19.658;2023-08-21T08:54:14;1242.18;;;999.90;;
28623;SDS011;15813;46.932;19.658;2023-08-21T08:56:39;1241.70;;;999.90;;
28623;SDS011;15813;46.932;19.658;2023-08-21T08:59:07;1230.93;;;999.90;;
28623;SDS011;15813;46.932;19.658;2023-08-21T09:01:33;1225.53;;;999.90;;
28623;SDS011;15813;46.932;19.658;2023-08-21T09:03:58;1213.88;;;999.90;;
28623;SDS011;15813;46.932;19.658;2023-08-21T09:06:23;1221.18;;;999.90;;
28623;SDS011;15813;46.932;19.658;2023-08-21T09:08:55;1220.10;;;999.90;;
28623;SDS011;15813;46.932;19.658;2023-08-21T09:11:21;1212.57;;;999.90;;
28623;SDS011;15813;46.932;19.658;2023-08-21T09:13:50;1210.60;;;999.90;;
28623;SDS011;15813;46.932;19.658;2023-08-21T09:16:19;1214.53;;;999.90;;
28623;SDS011;15813;46.932;19.658;2023-08-21T09:18:48;1220.70;;;999.90;;
28623;SDS011;15813;46.932;19.658;2023-08-21T09:21:17;1211.43;;;999.90;;
28623;SDS011;15813;46.932;19.658;2023-08-21T09:23:43;1214.05;;;999.90;;
28623;SDS011;15813;46.932;19.658;2023-08-21T09:26:09;1183.57;;;999.90;;
28623;SDS011;15813;46.932;19.658;2023-08-21T09:28:34;1216.53;;;999.90;;
28623;SDS011;15813;46.932;19.658;2023-08-21T09:31:00;1114.60;;;999.90;;
28623;SDS011;15813;46.932;19.658;2023-08-21T09:33:25;1107.63;;;999.90;;
28623;SDS011;15813;46.932;19.658;2023-08-21T09:35:51;1089.95;;;986.08;;
28623;SDS011;15813;46.932;19.658;2023-08-21T09:38:17;1077.38;;;974.50;;
28623;SDS011;15813;46.932;19.658;2023-08-21T09:40:49;1101.43;;;997.85;;
28623;SDS011;15813;46.932;19.658;2023-08-21T09:43:17;1091.50;;;987.90;;
28623;SDS011;15813;46.932;19.658;2023-08-21T09:45:45;1121.32;;;999.90;;
28623;SDS011;15813;46.932;19.658;2023-08-21T09:50:36;1133.23;;;999.90;;
28623;SDS011;15813;46.932;19.658;2023-08-21T09:53:03;1167.30;;;999.90;;
28623;SDS011;15813;46.932;19.658;2023-08-21T09:55:31;1070.15;;;966.58;;
28623;SDS011;15813;46.932;19.658;2023-08-21T09:57:58;1143.72;;;999.90;;
28623;SDS011;15813;46.932;19.658;2023-08-21T10:00:26;1117.25;;;999.90;;
28623;SDS011;15813;46.932;19.658;2023-08-21T10:02:52;1093.80;;;989.78;;
28623;SDS011;15813;46.932;19.658;2023-08-21T10:05:19;1153.10;;;999.90;;
28623;SDS011;15813;46.932;19.658;2023-08-21T10:07:48;1125.15;;;999.90;;
28623;SDS011;15813;46.932;19.658;2023-08-21T10:10:14;1054.45;;;951.95;;
28623;SDS011;15813;46.932;19.658;2023-08-21T10:12:40;1080.25;;;975.47;;
28623;SDS011;15813;46.932;19.658;2023-08-21T10:15:08;1097.45;;;991.42;;
28623;SDS011;15813;46.932;19.658;2023-08-21T10:17:35;1099.70;;;993.85;;
28623;SDS011;15813;46.932;19.658;2023-08-21T10:20:04;1154.85;;;999.90;;
28623;SDS011;15813;46.932;19.658;2023-08-21T10:22:42;1147.30;;;999.90;;
28623;SDS011;15813;46.932;19.658;2023-08-21T10:25:14;1154.07;;;999.90;;
28623;SDS011;15813;46.932;19.658;2023-08-21T10:27:41;1135.45;;;999.90;;
28623;SDS011;15813;46.932;19.658;2023-08-21T10:30:12;1156.40;;;999.90;;
28623;SDS011;15813;46.932;19.658;2023-08-21T10:32:43;1106.88;;;998.47;;
28623;SDS011;15813;46.932;19.658;2023-08-21T10:35:13;1062.68;;;958.47;;
28623;SDS011;15813;46.932;19.658;2023-08-21T10:37:57;1053.63;;;953.75;;
28623;SDS011;15813;46.932;19.658;2023-08-21T10:40:24;1052.32;;;950.03;;
28623;SDS011;15813;46.932;19.658;2023-08-21T10:42:49;1100.05;;;993.97;;
28623;SDS011;15813;46.932;19.658;2023-08-21T10:45:15;1060.25;;;955.90;;
28623;SDS011;15813;46.932;19.658;2023-08-21T10:47:40;1060.53;;;956.93;;
28623;SDS011;15813;46.932;19.658;2023-08-21T10:50:06;1039.25;;;938.60;;
28623;SDS011;15813;46.932;19.658;2023-08-21T10:52:38;1066.05;;;962.53;;
28623;SDS011;15813;46.932;19.658;2023-08-21T10:55:06;1040.53;;;939.30;;
28623;SDS011;15813;46.932;19.658;2023-08-21T10:57:33;1092.40;;;988.47;;
28623;SDS011;15813;46.932;19.658;2023-08-21T10:59:59;1037.75;;;935.63;;
28623;SDS011;15813;46.932;19.658;2023-08-21T11:02:25;1045.32;;;943.83;;
28623;SDS011;15813;46.932;19.658;2023-08-21T11:04:51;1058.35;;;960.22;;
28623;SDS011;15813;46.932;19.658;2023-08-21T11:07:17;1117.65;;;999.90;;
28623;SDS011;15813;46.932;19.658;2023-08-21T11:09:43;1140.15;;;999.90;;
28623;SDS011;15813;46.932;19.658;2023-08-21T11:12:09;1109.40;;;999.90;;
28623;SDS011;15813;46.932;19.658;2023-08-21T11:14:34;1085.40;;;980.95;;
28623;SDS011;15813;46.932;19.658;2023-08-21T11:17:00;1070.90;;;967.65;;
28623;SDS011;15813;46.932;19.658;2023-08-21T11:19:26;1045.05;;;943.72;;
28623;SDS011;15813;46.932;19.658;2023-08-21T11:21:51;1052.97;;;952.23;;
28623;SDS011;15813;46.932;19.658;2023-08-21T11:24:16;1054.90;;;951.97;;
28623;SDS011;15813;46.932;19.658;2023-08-21T11:26:41;1093.67;;;994.57;;
28623;SDS011;15813;46.932;19.658;2023-08-21T11:29:07;1088.43;;;987.60;;
28623;SDS011;15813;46.932;19.658;2023-08-21T11:31:32;1056.07;;;953.43;;
28623;SDS011;15813;46.932;19.658;2023-08-21T11:33:57;1093.43;;;988.80;;
28623;SDS011;15813;46.932;19.658;2023-08-21T11:36:23;1056.77;;;954.37;;
28623;SDS011;15813;46.932;19.658;2023-08-21T11:38:57;1074.53;;;970.20;;
28623;SDS011;15813;46.932;19.658;2023-08-21T11:41:23;1083.97;;;978.72;;
28623;SDS011;15813;46.932;19.658;2023-08-21T11:43:48;1108.27;;;999.90;;
28623;SDS011;15813;46.932;19.658;2023-08-21T11:46:14;1061.57;;;958.47;;
28623;SDS011;15813;46.932;19.658;2023-08-21T11:48:40;1090.38;;;986.15;;
28623;SDS011;15813;46.932;19.658;2023-08-21T11:51:06;1044.40;;;942.75;;
28623;SDS011;15813;46.932;19.658;2023-08-21T11:53:38;1058.20;;;956.10;;
28623;SDS011;15813;46.932;19.658;2023-08-21T11:56:13;1048.78;;;947.53;;
28623;SDS011;15813;46.932;19.658;2023-08-21T11:58:39;1024.90;;;925.03;;
28623;SDS011;15813;46.932;19.658;2023-08-21T12:01:05;1033.72;;;933.50;;
28623;SDS011;15813;46.932;19.658;2023-08-21T12:03:30;1059.85;;;958.67;;
28623;SDS011;15813;46.932;19.658;2023-08-21T12:05:56;1081.60;;;979.20;;
28623;SDS011;15813;46.932;19.658;2023-08-21T12:08:21;1031.50;;;931.53;;
28623;SDS011;15813;46.932;19.658;2023-08-21T12:10:49;1042.57;;;946.57;;
28623;SDS011;15813;46.932;19.658;2023-08-21T12:13:15;1058.00;;;961.75;;
28623;SDS011;15813;46.932;19.658;2023-08-21T12:15:40;1079.83;;;983.93;;
28623;SDS011;15813;46.932;19.658;2023-08-21T12:18:05;1028.20;;;928.17;;
28623;SDS011;15813;46.932;19.658;2023-08-21T12:20:30;994.07;;;897.13;;
28623;SDS011;15813;46.932;19.658;2023-08-21T12:22:56;1021.23;;;921.23;;
28623;SDS011;15813;46.932;19.658;2023-08-21T12:25:21;1060.87;;;960.33;;
28623;SDS011;15813;46.932;19.658;2023-08-21T12:27:47;1081.78;;;979.53;;
28623;SDS011;15813;46.932;19.658;2023-08-21T12:30:12;1087.20;;;985.13;;
28623;SDS011;15813;46.932;19.658;2023-08-21T12:32:37;1058.17;;;956.13;;
28623;SDS011;15813;46.932;19.658;2023-08-21T12:35:05;1116.85;;;999.90;;
28623;SDS011;15813;46.932;19.658;2023-08-21T12:37:31;1140.25;;;999.90;;
28623;SDS011;15813;46.932;19.658;2023-08-21T12:39:56;1119.55;;;999.90;;
28623;SDS011;15813;46.932;19.658;2023-08-21T12:42:22;1145.77;;;999.90;;
28623;SDS011;15813;46.932;19.658;2023-08-21T12:44:47;1170.33;;;999.90;;
28623;SDS011;15813;46.932;19.658;2023-08-21T12:47:12;1105.33;;;999.90;;
28623;SDS011;15813;46.932;19.658;2023-08-21T12:49:38;1161.53;;;999.90;;
28623;SDS011;15813;46.932;19.658;2023-08-21T12:52:04;1145.22;;;999.90;;
28623;SDS011;15813;46.932;19.658;2023-08-21T12:54:30;1101.22;;;997.60;;
28623;SDS011;15813;46.932;19.658;2023-08-21T12:56:56;1112.23;;;999.90;;
28623;SDS011;15813;46.932;19.658;2023-08-21T12:59:21;1122.97;;;999.90;;
28623;SDS011;15813;46.932;19.658;2023-08-21T13:01:47;1103.03;;;999.08;;
28623;SDS011;15813;46.932;19.658;2023-08-21T13:04:12;1075.17;;;974.43;;
28623;SDS011;15813;46.932;19.658;2023-08-21T13:06:37;1046.43;;;947.57;;
28623;SDS011;15813;46.932;19.658;2023-08-21T13:09:03;1108.55;;;999.90;;
28623;SDS011;15813;46.932;19.658;2023-08-21T13:11:29;1047.32;;;948.80;;
28623;SDS011;15813;46.932;19.658;2023-08-21T13:13:54;1060.40;;;961.47;;
28623;SDS011;15813;46.932;19.658;2023-08-21T13:16:20;1055.45;;;956.47;;
28623;SDS011;15813;46.932;19.658;2023-08-21T13:18:45;1089.10;;;988.67;;
28623;SDS011;15813;46.932;19.658;2023-08-21T13:21:10;1051.93;;;953.40;;
28623;SDS011;15813;46.932;19.658;2023-08-21T13:23:36;1065.77;;;965.80;;
28623;SDS011;15813;46.932;19.658;2023-08-21T13:26:01;1059.57;;;960.27;;
28623;SDS011;15813;46.932;19.658;2023-08-21T13:28:26;1074.10;;;974.23;;
28623;SDS011;15813;46.932;19.658;2023-08-21T13:30:52;1050.22;;;951.90;;
28623;SDS011;15813;46.932;19.658;2023-08-21T13:33:18;1046.70;;;948.47;;
28623;SDS011;15813;46.932;19.658;2023-08-21T13:35:46;1031.07;;;933.63;;
28623;SDS011;15813;46.932;19.658;2023-08-21T13:38:13;1046.85;;;948.38;;
28623;SDS011;15813;46.932;19.658;2023-08-21T13:40:39;1057.32;;;957.47;;
28623;SDS011;15813;46.932;19.658;2023-08-21T13:43:06;1128.38;;;999.90;;
28623;SDS011;15813;46.932;19.658;2023-08-21T13:45:32;1075.45;;;975.70;;